Time;durP1;ratioP1;P1;durP2;ratioP2;P2;SDS_P1;SDS_P2;PMS_P1;PMS_P2;Temp;Humidity;BMP_temperature;BMP_pressure;BME280_temperature;BME280_humidity;BME280_pressure;Samples;Min_cycle;Max_cycle;Signal;HPM_P1;HPM_P2
2021/12/09 19:25:21;;;;;;;24.70;14.93;;;;;;;;;;4939784;29;20634;-81
2021/12/09 19:28:26;;;;;;;77.73;41.77;;;;;;;;;;4930233;29;20749;-81
2021/12/09 19:31:31;;;;;;;54.70;31.63;;;;;;;;;;4930312;29;20575;-81
2021/12/09 19:34:35;;;;;;;29.67;18.47;;;;;;;;;;4919709;29;20579;-83
2021/12/09 19:37:39;;;;;;;18.03;14.47;;;;;;;;;;4921827;29;20678;-82
2021/12/09 19:40:43;;;;;;;18.03;9.53;;;;;;;;;;4911971;29;20580;-82
2021/12/09 19:43:48;;;;;;;15.07;9.57;;;;;;;;;;4913005;29;20604;-81
2021/12/09 19:46:52;;;;;;;14.60;9.40;;;;;;;;;;4915346;29;21157;-82
2021/12/09 19:49:57;;;;;;;15.20;9.00;;;;;;;;;;4919588;29;20675;-82
2021/12/09 19:53:01;;;;;;;17.13;9.00;;;;;;;;;;4908754;29;21045;-82
2021/12/09 19:56:06;;;;;;;13.40;9.57;;;;;;;;;;4941684;29;20568;-83
2021/12/09 19:59:12;;;;;;;13.40;8.67;;;;;;;;;;4940926;29;21260;-84
2021/12/09 20:02:17;;;;;;;13.83;9.67;;;;;;;;;;4920596;29;20599;-83
2021/12/09 20:05:21;;;;;;;15.87;10.10;;;;;;;;;;4919901;29;20951;-83
2021/12/09 20:08:31;;;;;;;12.97;9.27;;;;;;;;;;4918960;29;20694;-83
2021/12/09 20:11:36;;;;;;;15.33;10.30;;;;;;;;;;4938644;29;20560;-82
2021/12/09 20:14:40;;;;;;;15.30;10.37;;;;;;;;;;4927026;29;20607;-84
2021/12/09 20:17:44;;;;;;;14.20;9.93;;;;;;;;;;4927509;29;21183;-84
2021/12/09 20:20:49;;;;;;;16.67;9.30;;;;;;;;;;4926112;29;20592;-84
2021/12/09 20:23:56;;;;;;;12.17;9.00;;;;;;;;;;4939035;29;21167;-85
2021/12/09 20:27:00;;;;;;;12.10;8.93;;;;;;;;;;4897663;29;20565;-83
2021/12/09 20:30:07;;;;;;;14.70;9.90;;;;;;;;;;4897250;29;20664;-84
2021/12/09 20:33:14;;;;;;;13.47;9.27;;;;;;;;;;4908272;29;20568;-87
2021/12/09 20:36:19;;;;;;;16.43;9.07;;;;;;;;;;4900539;29;20631;-85
2021/12/09 20:39:23;;;;;;;14.40;9.43;;;;;;;;;;4897572;29;20644;-84
2021/12/09 20:42:27;;;;;;;13.77;9.60;;;;;;;;;;4924395;29;20572;-86
2021/12/09 20:45:31;;;;;;;17.43;10.13;;;;;;;;;;4924254;29;21121;-85
2021/12/09 20:48:36;;;;;;;14.13;9.57;;;;;;;;;;4909202;29;20671;-85
2021/12/09 20:51:40;;;;;;;12.03;8.97;;;;;;;;;;4935334;29;20604;-85
2021/12/09 20:54:44;;;;;;;15.07;10.50;;;;;;;;;;4923761;29;20592;-85
2021/12/09 20:57:48;;;;;;;15.20;10.30;;;;;;;;;;4921911;29;20609;-86
2021/12/09 21:00:55;;;;;;;12.40;8.93;;;;;;;;;;4921972;29;20607;-85
2021/12/09 21:03:59;;;;;;;14.80;10.73;;;;;;;;;;4911118;29;20572;-85
2021/12/09 21:07:04;;;;;;;14.40;10.07;;;;;;;;;;4921974;29;20622;-86
2021/12/09 21:10:13;;;;;;;18.03;12.13;;;;;;;;;;4932762;29;20695;-86
2021/12/09 21:13:17;;;;;;;16.20;12.00;;;;;;;;;;4910872;29;20571;-86
2021/12/09 21:16:22;;;;;;;19.37;13.00;;;;;;;;;;4943088;29;20620;-86
2021/12/09 21:19:27;;;;;;;18.07;11.20;;;;;;;;;;4910615;29;20632;-86
2021/12/09 21:22:31;;;;;;;19.03;11.63;;;;;;;;;;4921841;29;21186;-86
2021/12/09 21:25:35;;;;;;;14.40;10.60;;;;;;;;;;4921922;29;20583;-86
2021/12/09 21:28:42;;;;;;;16.03;10.60;;;;;;;;;;4910448;29;20663;-86
2021/12/09 21:31:48;;;;;;;16.37;10.97;;;;;;;;;;4932224;29;20572;-86
2021/12/09 21:35:08;;;;;;;19.20;10.97;;;;;;;;;;4921687;29;20614;-86
2021/12/09 21:38:12;;;;;;;15.00;9.93;;;;;;;;;;4931322;29;20576;-86
2021/12/09 21:41:17;;;;;;;18.87;9.70;;;;;;;;;;4932542;29;20580;-86
2021/12/09 21:44:21;;;;;;;16.40;10.83;;;;;;;;;;4932192;29;20615;-86
2021/12/09 21:47:25;;;;;;;13.87;9.73;;;;;;;;;;4921370;29;20581;-86
2021/12/09 21:50:30;;;;;;;14.53;10.57;;;;;;;;;;4921093;29;20998;-86
2021/12/09 21:53:38;;;;;;;13.23;9.77;;;;;;;;;;4943418;29;20571;-86
2021/12/09 21:56:46;;;;;;;16.23;10.20;;;;;;;;;;4911579;29;20577;-86
2021/12/09 21:59:50;;;;;;;13.93;9.23;;;;;;;;;;4921141;29;20634;-86
2021/12/09 22:02:55;;;;;;;14.60;9.00;;;;;;;;;;4921418;29;20591;-86
2021/12/09 22:05:59;;;;;;;14.50;9.47;;;;;;;;;;4916538;29;20553;-85
2021/12/09 22:09:28;;;;;;;14.83;9.13;;;;;;;;;;4940461;29;20659;-85
2021/12/09 22:12:33;;;;;;;12.30;8.60;;;;;;;;;;4939576;29;20603;-85
2021/12/09 22:15:40;;;;;;;11.73;8.13;;;;;;;;;;4928865;29;21093;-85
2021/12/09 22:18:50;;;;;;;16.03;8.67;;;;;;;;;;4929052;29;20631;-85
2021/12/09 22:21:54;;;;;;;13.60;9.07;;;;;;;;;;4928903;29;20895;-85
2021/12/09 22:24:59;;;;;;;12.97;8.00;;;;;;;;;;4929277;29;21077;-85
2021/12/09 22:28:03;;;;;;;14.57;7.10;;;;;;;;;;4928510;29;21090;-85
2021/12/09 22:31:08;;;;;;;14.20;7.73;;;;;;;;;;4917815;29;20545;-85
2021/12/09 22:34:13;;;;;;;13.57;8.10;;;;;;;;;;4928159;29;21093;-85
2021/12/09 22:37:18;;;;;;;16.53;7.17;;;;;;;;;;4939633;29;20549;-85
2021/12/09 22:40:22;;;;;;;13.07;7.33;;;;;;;;;;4917257;29;20970;-86
2021/12/09 22:43:28;;;;;;;14.60;7.70;;;;;;;;;;4927774;29;20549;-86
2021/12/09 22:46:32;;;;;;;12.10;7.40;;;;;;;;;;4927811;29;20548;-85
2021/12/09 22:49:44;;;;;;;13.33;6.97;;;;;;;;;;4938951;29;20659;-85
2021/12/09 22:52:48;;;;;;;12.23;7.60;;;;;;;;;;4930489;29;20553;-86
2021/12/09 22:55:53;;;;;;;17.73;7.37;;;;;;;;;;4941531;29;20549;-85
2021/12/09 22:58:57;;;;;;;10.23;6.97;;;;;;;;;;4930534;29;20639;-85
2021/12/09 23:02:03;;;;;;;12.37;7.90;;;;;;;;;;4941459;29;21081;-85
2021/12/09 23:05:07;;;;;;;14.17;7.97;;;;;;;;;;4929770;29;20548;-85
2021/12/09 23:08:13;;;;;;;14.13;8.33;;;;;;;;;;4929970;29;21093;-86
2021/12/09 23:11:25;;;;;;;13.00;7.30;;;;;;;;;;4919551;29;20541;-86
2021/12/09 23:14:41;;;;;;;13.83;6.97;;;;;;;;;;4930327;29;20540;-85
2021/12/09 23:17:52;;;;;;;16.63;7.30;;;;;;;;;;4940768;29;21092;-85
2021/12/09 23:20:56;;;;;;;13.00;7.43;;;;;;;;;;4940813;29;20548;-86
2021/12/09 23:24:00;;;;;;;15.07;6.97;;;;;;;;;;4929893;29;20627;-86
2021/12/09 23:27:07;;;;;;;15.30;7.77;;;;;;;;;;4929905;29;20548;-86
2021/12/09 23:30:11;;;;;;;14.10;7.67;;;;;;;;;;4940393;29;20664;-86
2021/12/09 23:33:15;;;;;;;12.33;6.50;;;;;;;;;;4940974;29;20556;-86
2021/12/09 23:36:21;;;;;;;12.40;6.60;;;;;;;;;;4940879;29;21093;-86
2021/12/09 23:39:26;;;;;;;13.07;7.50;;;;;;;;;;4940719;29;20628;-86
2021/12/09 23:42:30;;;;;;;11.83;6.40;;;;;;;;;;4929394;29;20607;-86
2021/12/09 23:45:34;;;;;;;11.60;7.00;;;;;;;;;;4940747;29;20612;-86
2021/12/09 23:48:39;;;;;;;12.33;6.90;;;;;;;;;;4941444;29;20631;-86
2021/12/09 23:51:53;;;;;;;14.00;7.20;;;;;;;;;;4941013;29;20541;-86
2021/12/09 23:54:58;;;;;;;14.77;6.90;;;;;;;;;;4931208;29;20549;-86
2021/12/09 23:58:04;;;;;;;14.10;7.47;;;;;;;;;;4941920;29;21101;-86
